sensor_id;sensor_type;location;lat;lon;timestamp;pressure;altitude;pressure_sealevel;temperature;humidity
49297;BME280;35163;48.878;18.040;2023-05-19T00:01:13;99042.28;;;12.79;70.73
49297;BME280;35163;48.878;18.040;2023-05-19T00:03:53;99040.72;;;12.73;70.81
49297;BME280;35163;48.878;18.040;2023-05-19T00:06:24;99043.44;;;12.70;70.81
49297;BME280;35163;48.878;18.040;2023-05-19T00:08:58;99042.63;;;12.68;71.53
49297;BME280;35163;48.878;18.040;2023-05-19T00:11:26;99042.66;;;12.67;71.79
49297;BME280;35163;48.878;18.040;2023-05-19T00:13:56;99042.78;;;12.63;72.12
49297;BME280;35163;48.878;18.040;2023-05-19T00:16:24;99040.13;;;12.65;71.78
49297;BME280;35163;48.878;18.040;2023-05-19T00:18:51;99043.69;;;12.61;72.17
49297;BME280;35163;48.878;18.040;2023-05-19T00:21:19;99041.03;;;12.62;72.50
49297;BME280;35163;48.878;18.040;2023-05-19T00:23:46;99044.44;;;12.64;72.23
49297;BME280;35163;48.878;18.040;2023-05-19T00:26:12;99034.16;;;12.61;72.63
49297;BME280;35163;48.878;18.040;2023-05-19T00:28:39;99041.25;;;12.56;72.82
49297;BME280;35163;48.878;18.040;2023-05-19T00:31:06;99044.72;;;12.55;72.72
49297;BME280;35163;48.878;18.040;2023-05-19T00:33:32;99024.06;;;12.52;73.05
49297;BME280;35163;48.878;18.040;2023-05-19T00:36:00;99036.94;;;12.55;72.65
49297;BME280;35163;48.878;18.040;2023-05-19T00:38:33;99026.53;;;12.57;73.07
49297;BME280;35163;48.878;18.040;2023-05-19T00:41:00;99026.53;;;12.57;73.07
49297;BME280;35163;48.878;18.040;2023-05-19T00:43:27;99024.00;;;12.54;72.93
49297;BME280;35163;48.878;18.040;2023-05-19T00:45:57;99037.06;;;12.50;73.07
49297;BME280;35163;48.878;18.040;2023-05-19T00:48:25;99034.53;;;12.49;73.33
49297;BME280;35163;48.878;18.040;2023-05-19T00:50:53;99024.19;;;12.47;73.58
49297;BME280;35163;48.878;18.040;2023-05-19T00:53:20;99033.06;;;12.40;73.98
49297;BME280;35163;48.878;18.040;2023-05-19T00:55:48;99029.53;;;12.43;73.94
49297;BME280;35163;48.878;18.040;2023-05-19T00:58:16;99032.09;;;12.44;73.93
49297;BME280;35163;48.878;18.040;2023-05-19T01:00:44;99037.38;;;12.41;73.98
49297;BME280;35163;48.878;18.040;2023-05-19T01:03:11;99026.94;;;12.43;73.95
49297;BME280;35163;48.878;18.040;2023-05-19T01:05:39;99014.78;;;12.45;74.07
49297;BME280;35163;48.878;18.040;2023-05-19T01:08:07;99026.13;;;12.41;74.12
49297;BME280;35163;48.878;18.040;2023-05-19T01:10:34;99025.31;;;12.38;74.13
49297;BME280;35163;48.878;18.040;2023-05-19T01:13:05;99022.72;;;12.38;74.46
49297;BME280;35163;48.878;18.040;2023-05-19T01:15:38;99016.72;;;12.36;74.34
49297;BME280;35163;48.878;18.040;2023-05-19T01:18:11;99017.63;;;12.35;73.96
49297;BME280;35163;48.878;18.040;2023-05-19T01:20:50;99009.84;;;12.35;74.28
49297;BME280;35163;48.878;18.040;2023-05-19T01:23:32;99004.72;;;12.34;74.70
49297;BME280;35163;48.878;18.040;2023-05-19T01:26:10;99019.25;;;12.39;74.35
49297;BME280;35163;48.878;18.040;2023-05-19T01:31:21;99008.16;;;12.34;74.48
49297;BME280;35163;48.878;18.040;2023-05-19T01:33:51;99018.50;;;12.36;74.36
49297;BME280;35163;48.878;18.040;2023-05-19T01:36:20;99020.41;;;12.29;74.78
49297;BME280;35163;48.878;18.040;2023-05-19T01:38:50;99020.28;;;12.34;74.55
49297;BME280;35163;48.878;18.040;2023-05-19T01:41:19;99019.38;;;12.35;74.33
49297;BME280;35163;48.878;18.040;2023-05-19T01:43:48;99006.50;;;12.32;74.81
49297;BME280;35163;48.878;18.040;2023-05-19T01:46:16;99010.91;;;12.28;74.65
49297;BME280;35163;48.878;18.040;2023-05-19T01:48:44;99008.28;;;12.30;74.41
49297;BME280;35163;48.878;18.040;2023-05-19T01:51:11;99000.44;;;12.31;74.68
49297;BME280;35163;48.878;18.040;2023-05-19T01:53:37;99010.81;;;12.33;74.39
49297;BME280;35163;48.878;18.040;2023-05-19T01:56:04;99010.00;;;12.31;74.23
49297;BME280;35163;48.878;18.040;2023-05-19T01:58:45;99007.44;;;12.29;74.23
49297;BME280;35163;48.878;18.040;2023-05-19T02:01:26;99011.72;;;12.30;74.54
49297;BME280;35163;48.878;18.040;2023-05-19T02:09:52;99004.97;;;12.24;74.47
49297;BME280;35163;48.878;18.040;2023-05-19T02:12:27;99009.13;;;12.30;74.23
49297;BME280;35163;48.878;18.040;2023-05-19T02:17:35;99008.41;;;12.25;74.19
49297;BME280;35163;48.878;18.040;2023-05-19T02:20:03;99002.34;;;12.26;74.31
49297;BME280;35163;48.878;18.040;2023-05-19T02:22:30;98996.41;;;12.22;74.08
49297;BME280;35163;48.878;18.040;2023-05-19T02:24:57;98998.88;;;12.27;73.87
49297;BME280;35163;48.878;18.040;2023-05-19T02:27:24;98985.09;;;12.25;73.94
49297;BME280;35163;48.878;18.040;2023-05-19T02:29:51;98978.13;;;12.27;73.93
49297;BME280;35163;48.878;18.040;2023-05-19T02:32:19;98979.94;;;12.23;73.92
49297;BME280;35163;48.878;18.040;2023-05-19T02:34:46;98989.50;;;12.21;73.88
49297;BME280;35163;48.878;18.040;2023-05-19T02:37:15;98977.41;;;12.22;73.89
49297;BME280;35163;48.878;18.040;2023-05-19T02:39:43;98979.19;;;12.20;73.45
49297;BME280;35163;48.878;18.040;2023-05-19T02:42:10;98988.63;;;12.22;73.64
49297;BME280;35163;48.878;18.040;2023-05-19T02:44:37;98984.38;;;12.20;73.81
49297;BME280;35163;48.878;18.040;2023-05-19T02:47:04;98981.06;;;12.14;73.75
49297;BME280;35163;48.878;18.040;2023-05-19T02:49:31;98987.00;;;12.18;73.77
49297;BME280;35163;48.878;18.040;2023-05-19T02:52:02;98983.56;;;12.18;73.32
49297;BME280;35163;48.878;18.040;2023-05-19T02:54:29;98986.19;;;12.16;73.32
49297;BME280;35163;48.878;18.040;2023-05-19T02:56:57;98986.19;;;12.16;73.30
49297;BME280;35163;48.878;18.040;2023-05-19T02:59:26;98987.16;;;12.13;73.67
49297;BME280;35163;48.878;18.040;2023-05-19T03:01:55;98986.53;;;12.03;74.13
49297;BME280;35163;48.878;18.040;2023-05-19T03:04:22;98984.69;;;12.07;74.26
49297;BME280;35163;48.878;18.040;2023-05-19T03:06:48;98983.91;;;12.05;74.09
49297;BME280;35163;48.878;18.040;2023-05-19T03:09:15;98988.94;;;12.11;74.01
49297;BME280;35163;48.878;18.040;2023-05-19T03:11:42;98998.50;;;12.09;74.41
49297;BME280;35163;48.878;18.040;2023-05-19T03:14:08;98994.97;;;12.12;74.50
49297;BME280;35163;48.878;18.040;2023-05-19T03:16:39;98994.88;;;12.15;74.48
49297;BME280;35163;48.878;18.040;2023-05-19T03:19:08;98993.94;;;12.18;74.32
49297;BME280;35163;48.878;18.040;2023-05-19T03:21:38;98995.75;;;12.15;74.25
49297;BME280;35163;48.878;18.040;2023-05-19T03:24:04;98999.06;;;12.21;74.53
49297;BME280;35163;48.878;18.040;2023-05-19T03:26:32;98992.16;;;12.20;73.62
49297;BME280;35163;48.878;18.040;2023-05-19T03:28:58;99002.47;;;12.21;73.98
49297;BME280;35163;48.878;18.040;2023-05-19T03:31:25;99005.03;;;12.23;73.72
49297;BME280;35163;48.878;18.040;2023-05-19T03:33:52;99000.84;;;12.19;74.05
49297;BME280;35163;48.878;18.040;2023-05-19T03:36:19;99006.94;;;12.16;73.46
49297;BME280;35163;48.878;18.040;2023-05-19T03:38:47;99005.25;;;12.15;73.89
49297;BME280;35163;48.878;18.040;2023-05-19T03:41:14;99012.84;;;12.21;73.26
49297;BME280;35163;48.878;18.040;2023-05-19T03:43:40;99009.38;;;12.22;73.49
49297;BME280;35163;48.878;18.040;2023-05-19T03:46:07;99006.69;;;12.25;73.23
49297;BME280;35163;48.878;18.040;2023-05-19T03:48:34;99010.91;;;12.28;73.82
49297;BME280;35163;48.878;18.040;2023-05-19T03:51:03;99016.09;;;12.28;73.88
49297;BME280;35163;48.878;18.040;2023-05-19T03:53:30;99018.78;;;12.25;73.38
49297;BME280;35163;48.878;18.040;2023-05-19T03:55:57;99018.69;;;12.28;73.50
49297;BME280;35163;48.878;18.040;2023-05-19T03:58:24;99015.22;;;12.29;73.15
49297;BME280;35163;48.878;18.040;2023-05-19T04:00:52;99016.91;;;12.30;72.79
49297;BME280;35163;48.878;18.040;2023-05-19T04:03:18;99006.63;;;12.27;72.54
49297;BME280;35163;48.878;18.040;2023-05-19T04:05:45;99008.28;;;12.30;72.01
49297;BME280;35163;48.878;18.040;2023-05-19T04:08:12;99005.63;;;12.31;72.14
49297;BME280;35163;48.878;18.040;2023-05-19T04:10:39;99012.53;;;12.32;71.97
49297;BME280;35163;48.878;18.040;2023-05-19T04:13:08;99015.13;;;12.32;71.72
49297;BME280;35163;48.878;18.040;2023-05-19T04:15:35;99019.50;;;12.30;71.98
49297;BME280;35163;48.878;18.040;2023-05-19T04:18:01;99016.91;;;12.30;71.86
49297;BME280;35163;48.878;18.040;2023-05-19T04:20:28;99015.22;;;12.29;71.86
49297;BME280;35163;48.878;18.040;2023-05-19T04:22:55;99014.94;;;12.38;72.01
49297;BME280;35163;48.878;18.040;2023-05-19T04:25:22;99009.63;;;12.43;72.04
49297;BME280;35163;48.878;18.040;2023-05-19T04:27:50;99009.72;;;12.40;71.48
49297;BME280;35163;48.878;18.040;2023-05-19T04:30:18;99015.75;;;12.41;71.47
49297;BME280;35163;48.878;18.040;2023-05-19T04:32:48;99015.94;;;12.34;71.30
49297;BME280;35163;48.878;18.040;2023-05-19T04:35:18;99015.22;;;12.29;71.36
49297;BME280;35163;48.878;18.040;2023-05-19T04:37:46;99011.78;;;12.29;71.22
49297;BME280;35163;48.878;18.040;2023-05-19T04:40:14;99004.75;;;12.32;71.31
49297;BME280;35163;48.878;18.040;2023-05-19T04:42:42;99011.53;;;12.36;71.00
49297;BME280;35163;48.878;18.040;2023-05-19T04:45:11;99018.59;;;12.33;71.20
49297;BME280;35163;48.878;18.040;2023-05-19T04:47:40;99018.50;;;12.36;71.20
49297;BME280;35163;48.878;18.040;2023-05-19T04:50:07;99017.63;;;12.35;71.32
49297;BME280;35163;48.878;18.040;2023-05-19T04:52:35;99021.09;;;12.36;71.30
49297;BME280;35163;48.878;18.040;2023-05-19T04:55:03;99025.31;;;12.38;71.26
49297;BME280;35163;48.878;18.040;2023-05-19T04:57:30;99034.84;;;12.38;70.98
49297;BME280;35163;48.878;18.040;2023-05-19T04:59:56;99026.22;;;12.37;71.18
49297;BME280;35163;48.878;18.040;2023-05-19T05:02:25;99027.00;;;12.41;70.95
49297;BME280;35163;48.878;18.040;2023-05-19T05:04:55;99032.03;;;12.46;70.86
49297;BME280;35163;48.878;18.040;2023-05-19T05:07:23;99027.66;;;12.48;71.06
49297;BME280;35163;48.878;18.040;2023-05-19T05:09:50;99031.06;;;12.48;71.19
49297;BME280;35163;48.878;18.040;2023-05-19T05:12:17;99032.84;;;12.48;70.99
49297;BME280;35163;48.878;18.040;2023-05-19T05:14:44;99030.25;;;12.48;70.93
49297;BME280;35163;48.878;18.040;2023-05-19T05:17:11;99030.06;;;12.54;70.51
49297;BME280;35163;48.878;18.040;2023-05-19T05:19:39;99021.50;;;12.50;70.46
49297;BME280;35163;48.878;18.040;2023-05-19T05:22:06;99023.19;;;12.53;70.13
49297;BME280;35163;48.878;18.040;2023-05-19T05:24:38;99026.59;;;12.54;70.51
49297;BME280;35163;48.878;18.040;2023-05-19T05:27:05;99028.41;;;12.51;70.67
49297;BME280;35163;48.878;18.040;2023-05-19T05:29:33;99039.63;;;12.52;70.67
49297;BME280;35163;48.878;18.040;2023-05-19T05:32:08;99042.22;;;12.52;71.04
49297;BME280;35163;48.878;18.040;2023-05-19T05:34:35;99045.63;;;12.54;70.66
49297;BME280;35163;48.878;18.040;2023-05-19T05:37:03;99056.84;;;12.55;70.99
49297;BME280;35163;48.878;18.040;2023-05-19T05:39:30;99056.91;;;12.53;70.79
49297;BME280;35163;48.878;18.040;2023-05-19T05:41:57;99067.28;;;12.53;70.97
49297;BME280;35163;48.878;18.040;2023-05-19T05:44:24;99061.91;;;12.59;70.80
49297;BME280;35163;48.878;18.040;2023-05-19T05:46:53;99070.63;;;12.57;70.65
49297;BME280;35163;48.878;18.040;2023-05-19T05:49:20;99057.53;;;12.61;70.39
49297;BME280;35163;48.878;18.040;2023-05-19T05:51:48;99064.41;;;12.62;70.75
49297;BME280;35163;48.878;18.040;2023-05-19T05:54:31;99070.31;;;12.68;70.55
49297;BME280;35163;48.878;18.040;2023-05-19T05:57:00;99071.25;;;12.65;70.68
49297;BME280;35163;48.878;18.040;2023-05-19T05:59:27;99068.63;;;12.67;70.72
49297;BME280;35163;48.878;18.040;2023-05-19T06:01:54;99063.44;;;12.67;70.71
49297;BME280;35163;48.878;18.040;2023-05-19T06:04:21;99059.22;;;12.62;70.54
49297;BME280;35163;48.878;18.040;2023-05-19T06:06:47;99079.00;;;12.67;70.67
49297;BME280;35163;48.878;18.040;2023-05-19T06:09:14;99087.75;;;12.62;70.87
49297;BME280;35163;48.878;18.040;2023-05-19T06:11:41;99082.47;;;12.66;71.04
49297;BME280;35163;48.878;18.040;2023-05-19T06:14:08;99081.59;;;12.67;70.83
49297;BME280;35163;48.878;18.040;2023-05-19T06:16:35;99089.22;;;12.71;70.62
49297;BME280;35163;48.878;18.040;2023-05-19T06:19:02;99091.69;;;12.76;70.49
49297;BME280;35163;48.878;18.040;2023-05-19T06:21:29;99089.84;;;12.80;70.50
49297;BME280;35163;48.878;18.040;2023-05-19T06:23:56;99089.94;;;12.76;70.34
49297;BME280;35163;48.878;18.040;2023-05-19T06:26:22;99104.56;;;12.79;70.28
49297;BME280;35163;48.878;18.040;2023-05-19T06:28:49;99094.16;;;12.81;70.00
49297;BME280;35163;48.878;18.040;2023-05-19T06:31:16;99101.88;;;12.82;69.60
49297;BME280;35163;48.878;18.040;2023-05-19T06:33:43;99110.50;;;12.83;69.42
49297;BME280;35163;48.878;18.040;2023-05-19T06:36:12;99105.25;;;12.86;69.89
49297;BME280;35163;48.878;18.040;2023-05-19T06:38:39;99112.06;;;12.88;69.91
49297;BME280;35163;48.878;18.040;2023-05-19T06:41:06;99121.66;;;12.86;69.82
49297;BME280;35163;48.878;18.040;2023-05-19T06:43:32;99116.28;;;12.93;69.71
49297;BME280;35163;48.878;18.040;2023-05-19T06:45:59;99125.66;;;12.97;69.42
49297;BME280;35163;48.878;18.040;2023-05-19T06:48:26;99128.16;;;13.00;69.45
49297;BME280;35163;48.878;18.040;2023-05-19T06:50:52;99132.34;;;13.06;69.51
49297;BME280;35163;48.878;18.040;2023-05-19T06:53:19;99128.09;;;13.03;69.20
49297;BME280;35163;48.878;18.040;2023-05-19T06:55:46;99137.38;;;13.10;69.29
49297;BME280;35163;48.878;18.040;2023-05-19T06:58:25;99132.09;;;13.13;69.42
49297;BME280;35163;48.878;18.040;2023-05-19T07:00:52;99131.22;;;13.15;69.41
49297;BME280;35163;48.878;18.040;2023-05-19T07:03:19;99125.09;;;13.16;69.26
49297;BME280;35163;48.878;18.040;2023-05-19T07:05:46;99127.59;;;13.19;69.41
49297;BME280;35163;48.878;18.040;2023-05-19T07:08:12;99129.31;;;13.20;69.61
49297;BME280;35163;48.878;18.040;2023-05-19T07:10:42;99131.88;;;13.21;69.47
49297;BME280;35163;48.878;18.040;2023-05-19T07:13:09;99132.72;;;13.22;69.41
49297;BME280;35163;48.878;18.040;2023-05-19T07:15:35;99130.03;;;13.25;69.56
49297;BME280;35163;48.878;18.040;2023-05-19T07:18:02;99131.66;;;13.28;69.32
49297;BME280;35163;48.878;18.040;2023-05-19T07:20:29;99134.03;;;13.35;69.36
49297;BME280;35163;48.878;18.040;2023-05-19T07:22:56;99133.03;;;13.40;69.28
49297;BME280;35163;48.878;18.040;2023-05-19T07:25:23;99132.03;;;13.44;69.14
49297;BME280;35163;48.878;18.040;2023-05-19T07:27:51;99122.41;;;13.47;69.08
49297;BME280;35163;48.878;18.040;2023-05-19T07:30:18;99130.09;;;13.51;68.85
49297;BME280;35163;48.878;18.040;2023-05-19T07:32:44;99123.91;;;13.55;68.99
49297;BME280;35163;48.878;18.040;2023-05-19T07:35:11;99128.19;;;13.57;68.71
49297;BME280;35163;48.878;18.040;2023-05-19T07:37:38;99129.78;;;13.62;68.63
49297;BME280;35163;48.878;18.040;2023-05-19T07:40:05;99129.00;;;13.59;68.65
49297;BME280;35163;48.878;18.040;2023-05-19T07:42:33;99133.97;;;13.66;69.06
49297;BME280;35163;48.878;18.040;2023-05-19T07:45:00;99142.69;;;13.65;68.72
49297;BME280;35163;48.878;18.040;2023-05-19T07:47:29;99144.31;;;13.67;68.42
49297;BME280;35163;48.878;18.040;2023-05-19T07:49:56;99139.88;;;13.71;68.44
49297;BME280;35163;48.878;18.040;2023-05-19T07:52:22;99149.28;;;13.75;68.29
49297;BME280;35163;48.878;18.040;2023-05-19T07:54:49;99143.06;;;13.79;68.59
49297;BME280;35163;48.878;18.040;2023-05-19T07:57:15;99147.25;;;13.83;68.59
49297;BME280;35163;48.878;18.040;2023-05-19T07:59:44;99136.72;;;13.88;68.41
49297;BME280;35163;48.878;18.040;2023-05-19T08:02:14;99137.41;;;13.93;68.35
49297;BME280;35163;48.878;18.040;2023-05-19T08:04:40;99138.09;;;13.99;68.42
49297;BME280;35163;48.878;18.040;2023-05-19T08:07:08;99137.03;;;14.04;68.42
49297;BME280;35163;48.878;18.040;2023-05-19T08:09:37;99136.78;;;14.12;68.60
49297;BME280;35163;48.878;18.040;2023-05-19T08:12:04;99144.28;;;14.20;68.17
49297;BME280;35163;48.878;18.040;2023-05-19T08:14:31;99142.38;;;14.25;67.94
49297;BME280;35163;48.878;18.040;2023-05-19T08:17:02;99138.84;;;14.28;68.21
49297;BME280;35163;48.878;18.040;2023-05-19T08:19:29;99141.16;;;14.36;67.85
49297;BME280;35163;48.878;18.040;2023-05-19T08:21:56;99139.22;;;14.41;67.77
49297;BME280;35163;48.878;18.040;2023-05-19T08:24:23;99140.72;;;14.48;67.79
49297;BME280;35163;48.878;18.040;2023-05-19T08:26:50;99140.47;;;14.54;67.35
49297;BME280;35163;48.878;18.040;2023-05-19T08:29:16;99141.16;;;14.60;67.44
49297;BME280;35163;48.878;18.040;2023-05-19T08:31:43;99139.97;;;14.68;67.36
49297;BME280;35163;48.878;18.040;2023-05-19T08:34:10;99136.09;;;14.80;67.26
49297;BME280;35163;48.878;18.040;2023-05-19T08:36:37;99136.59;;;14.90;67.07
49297;BME280;35163;48.878;18.040;2023-05-19T08:39:04;99135.31;;;15.02;66.83
49297;BME280;35163;48.878;18.040;2023-05-19T08:41:31;99137.41;;;15.15;66.54
49297;BME280;35163;48.878;18.040;2023-05-19T08:43:58;99137.75;;;15.29;66.82
49297;BME280;35163;48.878;18.040;2023-05-19T08:46:27;99141.34;;;15.48;67.11
49297;BME280;35163;48.878;18.040;2023-05-19T08:48:58;99135.31;;;15.68;67.32
49297;BME280;35163;48.878;18.040;2023-05-19T08:51:48;99139.72;;;15.88;67.53
49297;BME280;35163;48.878;18.040;2023-05-19T08:54:16;99145.16;;;16.05;67.24
49297;BME280;35163;48.878;18.040;2023-05-19T08:56:44;99136.69;;;16.20;67.33
49297;BME280;35163;48.878;18.040;2023-05-19T08:59:12;99134.22;;;16.36;67.22
49297;BME280;35163;48.878;18.040;2023-05-19T09:01:44;99127.50;;;16.51;67.12
49297;BME280;35163;48.878;18.040;2023-05-19T09:04:15;99132.03;;;16.67;66.60
49297;BME280;35163;48.878;18.040;2023-05-19T09:06:42;99131.31;;;16.83;66.43
49297;BME280;35163;48.878;18.040;2023-05-19T09:09:10;99122.75;;;16.98;66.34
49297;BME280;35163;48.878;18.040;2023-05-19T09:11:38;99130.84;;;17.13;65.88
49297;BME280;35163;48.878;18.040;2023-05-19T09:14:05;99125.78;;;17.28;65.85
49297;BME280;35163;48.878;18.040;2023-05-19T09:16:34;99123.38;;;17.42;65.60
49297;BME280;35163;48.878;18.040;2023-05-19T09:19:01;99121.84;;;17.56;65.51
49297;BME280;35163;48.878;18.040;2023-05-19T09:21:32;99120.22;;;17.71;65.70
49297;BME280;35163;48.878;18.040;2023-05-19T09:24:06;99119.47;;;17.87;65.29
49297;BME280;35163;48.878;18.040;2023-05-19T09:26:41;99117.91;;;18.00;64.81
49297;BME280;35163;48.878;18.040;2023-05-19T09:29:12;99111.16;;;18.14;64.33
49297;BME280;35163;48.878;18.040;2023-05-19T09:31:46;99113.97;;;18.27;64.53
49297;BME280;35163;48.878;18.040;2023-05-19T09:34:16;99118.47;;;18.41;64.54
49297;BME280;35163;48.878;18.040;2023-05-19T09:36:45;99116.97;;;18.53;63.91
49297;BME280;35163;48.878;18.040;2023-05-19T09:39:13;99115.53;;;18.63;64.21
49297;BME280;35163;48.878;18.040;2023-05-19T09:41:40;99115.16;;;18.71;62.69
49297;BME280;35163;48.878;18.040;2023-05-19T09:44:21;99113.72;;;18.81;63.08
49297;BME280;35163;48.878;18.040;2023-05-19T09:46:49;99112.19;;;18.93;63.84
49297;BME280;35163;48.878;18.040;2023-05-19T09:49:23;99111.59;;;19.04;63.24
49297;BME280;35163;48.878;18.040;2023-05-19T09:51:57;99114.59;;;19.14;62.46
49297;BME280;35163;48.878;18.040;2023-05-19T09:54:24;99109.75;;;19.23;61.69
49297;BME280;35163;48.878;18.040;2023-05-19T09:59:27;99104.22;;;19.43;61.82
49297;BME280;35163;48.878;18.040;2023-05-19T10:01:59;99101.91;;;19.53;63.03
49297;BME280;35163;48.878;18.040;2023-05-19T10:04:28;99102.97;;;19.65;63.26
49297;BME280;35163;48.878;18.040;2023-05-19T10:06:56;99098.03;;;19.75;63.42
49297;BME280;35163;48.878;18.040;2023-05-19T10:09:27;99094.00;;;19.84;63.21
49297;BME280;35163;48.878;18.040;2023-05-19T10:11:58;99091.78;;;19.92;63.04
49297;BME280;35163;48.878;18.040;2023-05-19T10:14:28;99096.53;;;20.00;62.20
49297;BME280;35163;48.878;18.040;2023-05-19T10:16:58;99090.03;;;20.08;62.46
49297;BME280;35163;48.878;18.040;2023-05-19T10:19:26;99087.78;;;20.16;62.15
49297;BME280;35163;48.878;18.040;2023-05-19T10:21:54;99077.66;;;20.24;62.50
49297;BME280;35163;48.878;18.040;2023-05-19T10:24:24;99085.06;;;20.32;61.38
49297;BME280;35163;48.878;18.040;2023-05-19T10:27:00;99075.03;;;20.39;60.61
49297;BME280;35163;48.878;18.040;2023-05-19T10:29:33;99079.72;;;20.48;61.57
49297;BME280;35163;48.878;18.040;2023-05-19T10:32:07;99070.50;;;20.56;62.11
49297;BME280;35163;48.878;18.040;2023-05-19T10:41:08;99065.69;;;20.77;56.93
49297;BME280;35163;48.878;18.040;2023-05-19T10:46:35;99061.31;;;20.91;58.84
49297;BME280;35163;48.878;18.040;2023-05-19T10:49:03;99058.53;;;20.94;57.68
49297;BME280;35163;48.878;18.040;2023-05-19T10:51:30;99055.59;;;20.98;58.20
49297;BME280;35163;48.878;18.040;2023-05-19T10:54:06;99060.56;;;21.03;58.00
49297;BME280;35163;48.878;18.040;2023-05-19T10:56:38;99046.06;;;21.10;57.96
49297;BME280;35163;48.878;18.040;2023-05-19T10:59:33;99052.50;;;21.19;58.00
49297;BME280;35163;48.878;18.040;2023-05-19T11:02:07;99047.69;;;21.26;59.14
49297;BME280;35163;48.878;18.040;2023-05-19T11:04:48;99048.97;;;21.33;58.44
49297;BME280;35163;48.878;18.040;2023-05-19T11:07:20;99044.03;;;21.42;59.33
49297;BME280;35163;48.878;18.040;2023-05-19T11:09:51;99046.44;;;21.45;57.48
49297;BME280;35163;48.878;18.040;2023-05-19T11:12:22;99038.28;;;21.49;55.98
49297;BME280;35163;48.878;18.040;2023-05-19T11:14:54;99048.25;;;21.57;56.87
49297;BME280;35163;48.878;18.040;2023-05-19T11:17:23;99047.84;;;21.64;57.83
49297;BME280;35163;48.878;18.040;2023-05-19T11:19:54;99045.03;;;21.67;56.29
49297;BME280;35163;48.878;18.040;2023-05-19T11:22:25;99042.91;;;21.72;56.05
49297;BME280;35163;48.878;18.040;2023-05-19T11:24:58;99039.00;;;21.78;56.85
49297;BME280;35163;48.878;18.040;2023-05-19T11:27:27;99041.25;;;21.84;57.10
49297;BME280;35163;48.878;18.040;2023-05-19T11:29:58;99040.84;;;21.90;57.43
49297;BME280;35163;48.878;18.040;2023-05-19T11:32:29;99044.84;;;21.96;58.23
49297;BME280;35163;48.878;18.040;2023-05-19T11:34:56;99038.19;;;22.03;56.61
49297;BME280;35163;48.878;18.040;2023-05-19T11:37:23;99040.41;;;22.09;57.28
49297;BME280;35163;48.878;18.040;2023-05-19T11:39:51;99032.16;;;22.14;57.36
49297;BME280;35163;48.878;18.040;2023-05-19T11:42:18;99043.44;;;22.16;54.22
49297;BME280;35163;48.878;18.040;2023-05-19T11:44:54;99035.53;;;22.16;52.19
49297;BME280;35163;48.878;18.040;2023-05-19T11:47:21;99040.69;;;22.18;53.35
49297;BME280;35163;48.878;18.040;2023-05-19T11:49:50;99037.84;;;22.21;52.99
49297;BME280;35163;48.878;18.040;2023-05-19T11:52:24;99041.09;;;22.25;52.01
49297;BME280;35163;48.878;18.040;2023-05-19T11:54:51;99034.66;;;22.29;55.18
49297;BME280;35163;48.878;18.040;2023-05-19T11:57:21;99043.41;;;22.29;51.30
49297;BME280;35163;48.878;18.040;2023-05-19T11:59:50;99038.03;;;22.31;52.45
49297;BME280;35163;48.878;18.040;2023-05-19T12:02:25;99048.47;;;22.32;51.41
49297;BME280;35163;48.878;18.040;2023-05-19T12:04:53;99035.91;;;22.36;52.33
49297;BME280;35163;48.878;18.040;2023-05-19T12:07:23;99033.16;;;22.38;53.00
49297;BME280;35163;48.878;18.040;2023-05-19T12:09:51;99036.66;;;22.38;53.87
49297;BME280;35163;48.878;18.040;2023-05-19T12:12:19;99039.06;;;22.41;53.57
49297;BME280;35163;48.878;18.040;2023-05-19T12:14:48;99038.22;;;22.41;53.38
49297;BME280;35163;48.878;18.040;2023-05-19T12:17:20;99037.28;;;22.42;52.76
49297;BME280;35163;48.878;18.040;2023-05-19T12:19:47;99035.28;;;22.45;52.54
49297;BME280;35163;48.878;18.040;2023-05-19T12:22:15;99036.09;;;22.46;51.84
49297;BME280;35163;48.878;18.040;2023-05-19T12:24:43;99035.03;;;22.49;54.28
49297;BME280;35163;48.878;18.040;2023-05-19T12:27:10;99035.91;;;22.49;53.64
49297;BME280;35163;48.878;18.040;2023-05-19T12:29:39;99028.81;;;22.50;54.50
49297;BME280;35163;48.878;18.040;2023-05-19T12:32:06;99040.94;;;22.52;52.24
49297;BME280;35163;48.878;18.040;2023-05-19T12:34:37;99023.25;;;22.54;53.09
49297;BME280;35163;48.878;18.040;2023-05-19T12:37:05;99016.88;;;22.57;53.95
49297;BME280;35163;48.878;18.040;2023-05-19T12:39:32;99020.38;;;22.57;54.16
49297;BME280;35163;48.878;18.040;2023-05-19T12:42:05;99013.28;;;22.58;53.34
49297;BME280;35163;48.878;18.040;2023-05-19T12:44:52;99019.53;;;22.57;52.69
49297;BME280;35163;48.878;18.040;2023-05-19T12:47:20;99014.88;;;22.61;54.83
49297;BME280;35163;48.878;18.040;2023-05-19T12:52:22;99012.91;;;22.64;50.79
49297;BME280;35163;48.878;18.040;2023-05-19T12:54:49;99012.03;;;22.64;50.70
49297;BME280;35163;48.878;18.040;2023-05-19T12:57:19;99006.97;;;22.61;48.89
49297;BME280;35163;48.878;18.040;2023-05-19T12:59:47;99012.03;;;22.64;51.23
49297;BME280;35163;48.878;18.040;2023-05-19T13:02:14;99006.53;;;22.67;50.83
49297;BME280;35163;48.878;18.040;2023-05-19T13:04:41;99013.53;;;22.68;53.07
49297;BME280;35163;48.878;18.040;2023-05-19T13:07:08;99006.31;;;22.70;52.48
49297;BME280;35163;48.878;18.040;2023-05-19T13:09:35;99010.66;;;22.71;51.18
49297;BME280;35163;48.878;18.040;2023-05-19T13:12:02;99005.38;;;22.71;51.42
49297;BME280;35163;48.878;18.040;2023-05-19T13:14:30;99006.13;;;22.73;51.97
49297;BME280;35163;48.878;18.040;2023-05-19T13:16:56;99000.84;;;22.73;52.31
49297;BME280;35163;48.878;18.040;2023-05-19T13:19:23;99005.16;;;22.74;51.59
49297;BME280;35163;48.878;18.040;2023-05-19T13:21:51;98998.91;;;22.75;51.72
49297;BME280;35163;48.878;18.040;2023-05-19T13:24:18;99001.56;;;22.75;49.67